createdAt,value
2023-02-13T00:01:06.573Z,22.23
2023-02-13T00:03:33.444Z,24.33
2023-02-13T00:06:00.227Z,21.07
2023-02-13T00:08:26.702Z,20.23
2023-02-13T00:10:53.251Z,25.23
2023-02-13T00:13:20.183Z,20.67
2023-02-13T00:15:55.395Z,20.47
2023-02-13T00:18:22.062Z,22.10
2023-02-13T00:20:58.442Z,25.13
2023-02-13T00:23:25.222Z,19.63
2023-02-13T00:25:51.705Z,22.40
2023-02-13T00:28:18.203Z,23.20
2023-02-13T00:30:45.006Z,19.73
2023-02-13T00:33:11.454Z,21.70
2023-02-13T00:35:38.060Z,23.83
2023-02-13T00:38:04.516Z,22.73
2023-02-13T00:40:30.996Z,20.07
2023-02-13T00:42:57.517Z,21.57
2023-02-13T00:45:24.047Z,20.93
2023-02-13T00:47:50.632Z,22.60
2023-02-13T00:50:17.315Z,21.63
2023-02-13T00:52:44.279Z,23.80
2023-02-13T00:55:10.757Z,21.13
2023-02-13T00:57:37.239Z,24.10
2023-02-13T01:00:04.286Z,20.57
2023-02-13T01:02:30.740Z,22.63
2023-02-13T01:04:57.279Z,22.63
2023-02-13T01:07:24.227Z,21.67
2023-02-13T01:09:50.921Z,22.43
2023-02-13T01:12:17.526Z,23.23
2023-02-13T01:14:44.024Z,22.37
2023-02-13T01:17:10.724Z,24.27
2023-02-13T01:19:37.297Z,23.97
2023-02-13T01:22:03.865Z,24.83
2023-02-13T01:24:33.326Z,22.80
2023-02-13T01:27:02.318Z,24.83
2023-02-13T01:29:29.641Z,23.27
2023-02-13T01:31:56.572Z,21.30
2023-02-13T01:34:23.094Z,20.17
2023-02-13T01:36:49.700Z,20.50
2023-02-13T01:39:16.152Z,19.60
2023-02-13T01:41:42.592Z,23.80
2023-02-13T01:44:47.018Z,22.63
2023-02-13T01:47:16.777Z,22.63
2023-02-13T01:49:45.162Z,22.80
2023-02-13T01:52:12.347Z,21.53
2023-02-13T01:54:39.237Z,18.63
2023-02-13T01:57:25.168Z,16.80
2023-02-13T01:59:57.241Z,17.27
2023-02-13T02:02:24.298Z,18.50
2023-02-13T02:04:51.396Z,18.90
2023-02-13T02:07:20.268Z,18.83
2023-02-13T02:09:46.935Z,19.63
2023-02-13T02:12:16.388Z,20.90
2023-02-13T02:14:44.203Z,18.10
2023-02-13T02:17:11.553Z,17.17
2023-02-13T02:19:39.177Z,12.00
2023-02-13T02:22:19.509Z,13.13
2023-02-13T02:25:05.063Z,13.90
2023-02-13T02:27:55.872Z,14.13
2023-02-13T02:30:41.287Z,10.93
2023-02-13T02:33:27.675Z,12.63
2023-02-13T02:36:00.423Z,9.47
2023-02-13T02:38:45.398Z,9.37
2023-02-13T02:41:45.081Z,8.03
2023-02-13T02:44:35.561Z,7.97
2023-02-13T02:47:20.853Z,7.57
2023-02-13T02:50:02.186Z,6.33
2023-02-13T02:52:41.917Z,8.13
2023-02-13T02:55:20.441Z,6.13
2023-02-13T02:58:15.929Z,7.60
2023-02-13T03:01:01.568Z,6.70
2023-02-13T03:03:47.848Z,7.07
2023-02-13T03:06:23.833Z,6.53
2023-02-13T03:09:21.354Z,5.47
2023-02-13T03:12:08.944Z,5.70
2023-02-13T03:14:35.810Z,7.17
2023-02-13T03:17:21.912Z,6.10
2023-02-13T03:20:56.724Z,7.17
2023-02-13T03:23:23.691Z,6.90
2023-02-13T03:26:08.846Z,5.97
2023-02-13T03:29:16.160Z,7.53
2023-02-13T03:32:08.702Z,6.43
2023-02-13T03:35:12.435Z,5.50
2023-02-13T03:37:56.502Z,6.40
2023-02-13T03:40:28.493Z,6.13
2023-02-13T03:43:03.877Z,6.23
2023-02-13T03:45:52.137Z,6.07
2023-02-13T03:48:40.956Z,10.43
2023-02-13T03:51:09.344Z,4.97
2023-02-13T03:53:36.990Z,4.93
2023-02-13T03:56:21.934Z,4.60
2023-02-13T03:59:11.058Z,4.67
2023-02-13T04:01:38.438Z,4.60
2023-02-13T04:04:31.731Z,4.40
2023-02-13T04:07:02.987Z,4.87
2023-02-13T04:09:30.205Z,4.90
2023-02-13T04:12:11.774Z,5.33
2023-02-13T04:14:58.384Z,4.80
2023-02-13T04:17:33.538Z,4.30
2023-02-13T04:20:00.270Z,4.23
2023-02-13T04:22:26.736Z,5.53
2023-02-13T04:24:53.495Z,5.10
2023-02-13T04:27:20.286Z,4.97
2023-02-13T04:29:46.719Z,6.17
2023-02-13T04:32:14.226Z,5.40
2023-02-13T04:34:40.890Z,4.93
2023-02-13T04:37:07.427Z,6.50
2023-02-13T04:39:34.130Z,5.23
2023-02-13T04:42:00.822Z,5.37
2023-02-13T04:44:27.319Z,5.93
2023-02-13T04:46:53.770Z,5.47
2023-02-13T04:49:20.443Z,6.23
2023-02-13T04:51:46.913Z,7.40
2023-02-13T04:54:13.679Z,5.53
2023-02-13T04:56:40.204Z,5.80
2023-02-13T04:59:06.774Z,5.10
2023-02-13T05:01:33.463Z,6.37
2023-02-13T05:03:59.909Z,6.10
2023-02-13T05:06:26.359Z,7.57
2023-02-13T05:08:53.024Z,7.33
2023-02-13T05:11:19.503Z,5.50
2023-02-13T05:13:45.959Z,6.13
2023-02-13T05:16:12.623Z,7.57
2023-02-13T05:18:39.198Z,6.27
2023-02-13T05:21:24.744Z,6.30
2023-02-13T05:23:51.197Z,5.67
2023-02-13T05:26:17.716Z,6.43
2023-02-13T05:29:02.897Z,7.43
2023-02-13T05:31:29.500Z,6.43
2023-02-13T05:33:56.260Z,6.97
2023-02-13T05:36:22.722Z,7.20
2023-02-13T05:38:49.210Z,7.10
2023-02-13T05:41:15.721Z,6.87
2023-02-13T05:43:42.393Z,7.47
2023-02-13T05:46:09.967Z,7.43
2023-02-13T05:48:36.925Z,6.50
2023-02-13T05:51:03.549Z,7.43
2023-02-13T05:53:30.080Z,6.83
2023-02-13T05:55:56.850Z,7.87
2023-02-13T05:58:23.644Z,7.97
2023-02-13T06:00:50.168Z,6.90
2023-02-13T06:03:16.785Z,6.40
2023-02-13T06:05:43.339Z,9.17
2023-02-13T06:08:09.875Z,6.97
2023-02-13T06:10:36.335Z,7.90
2023-02-13T06:13:02.920Z,6.47
2023-02-13T06:15:29.406Z,7.67
2023-02-13T06:17:55.966Z,6.50
2023-02-13T06:20:22.801Z,8.70
2023-02-13T06:22:50.890Z,7.13
2023-02-13T06:25:17.732Z,7.37
2023-02-13T06:27:44.447Z,7.47
2023-02-13T06:30:11.427Z,7.20
2023-02-13T06:32:37.911Z,7.70
2023-02-13T06:35:05.731Z,7.47
2023-02-13T06:37:32.581Z,8.20
2023-02-13T06:39:59.058Z,8.60
2023-02-13T06:42:25.668Z,7.30
2023-02-13T06:44:52.281Z,25.80
2023-02-13T06:47:18.788Z,35.63
2023-02-13T06:49:45.465Z,28.33
2023-02-13T06:52:11.969Z,33.90
2023-02-13T06:54:47.248Z,34.63
2023-02-13T06:57:15.058Z,35.13
2023-02-13T06:59:41.679Z,30.73
2023-02-13T07:02:10.748Z,30.80
2023-02-13T07:04:37.352Z,27.83
2023-02-13T07:07:03.840Z,27.50
2023-02-13T07:09:31.440Z,28.13
2023-02-13T07:11:58.094Z,34.17
2023-02-13T07:14:24.834Z,30.67
2023-02-13T07:19:42.590Z,28.07
2023-02-13T07:22:09.142Z,26.00
2023-02-13T07:24:36.139Z,27.77
2023-02-13T07:27:02.594Z,26.03
2023-02-13T07:29:29.289Z,22.53
2023-02-13T07:31:55.814Z,28.10
2023-02-13T07:34:22.730Z,23.03
2023-02-13T07:36:49.296Z,30.23
2023-02-13T07:39:15.855Z,23.93
2023-02-13T07:41:42.342Z,22.77
2023-02-13T07:44:09.143Z,18.87
2023-02-13T07:46:35.988Z,17.63
2023-02-13T07:49:02.500Z,21.40
2023-02-13T07:51:29.169Z,18.23
2023-02-13T07:53:56.670Z,19.27
2023-02-13T07:56:24.218Z,14.20
2023-02-13T07:58:50.765Z,13.57
2023-02-13T08:01:17.625Z,12.53
2023-02-13T08:03:48.374Z,14.83
2023-02-13T08:06:14.975Z,11.70
2023-02-13T08:08:41.398Z,11.80
2023-02-13T08:11:37.594Z,14.93
2023-02-13T08:14:05.451Z,14.63
2023-02-13T08:16:32.118Z,10.47
2023-02-13T08:18:58.592Z,12.00
2023-02-13T08:21:25.131Z,10.60
2023-02-13T08:23:52.152Z,8.43
2023-02-13T08:26:18.601Z,10.70
2023-02-13T08:28:45.255Z,8.17
2023-02-13T08:31:12.267Z,8.43
2023-02-13T08:33:40.002Z,8.40
2023-02-13T08:36:06.997Z,9.40
2023-02-13T08:38:34.043Z,8.23
2023-02-13T08:41:00.505Z,9.43
2023-02-13T08:43:27.159Z,10.87
2023-02-13T08:45:53.682Z,9.60
2023-02-13T08:48:20.300Z,10.80
2023-02-13T08:50:46.902Z,10.77
2023-02-13T08:53:13.341Z,11.13
2023-02-13T08:55:40.051Z,9.40
2023-02-13T08:58:06.621Z,10.87
2023-02-13T09:00:33.337Z,11.10
2023-02-13T09:03:02.910Z,12.17
2023-02-13T09:05:31.730Z,10.47
2023-02-13T09:08:05.003Z,11.87
2023-02-13T09:10:32.580Z,10.37
2023-02-13T09:12:59.312Z,9.00
2023-02-13T09:15:25.963Z,9.73
2023-02-13T09:17:52.530Z,10.57
2023-02-13T09:20:19.409Z,9.03
2023-02-13T09:22:45.897Z,9.53
2023-02-13T09:25:12.480Z,10.67
2023-02-13T09:27:41.628Z,8.23
2023-02-13T09:30:11.496Z,13.40
2023-02-13T09:32:38.003Z,11.43
2023-02-13T09:35:06.904Z,10.27
2023-02-13T09:37:33.469Z,8.93
2023-02-13T09:40:00.101Z,10.37
2023-02-13T09:42:29.572Z,11.17
2023-02-13T09:44:58.414Z,12.27
2023-02-13T09:47:28.520Z,16.50
2023-02-13T09:50:05.433Z,12.00
2023-02-13T09:52:34.715Z,11.87
2023-02-13T09:55:02.340Z,11.17
2023-02-13T09:57:31.421Z,10.10
2023-02-13T10:00:04.232Z,12.37
2023-02-13T10:02:45.868Z,11.00
2023-02-13T10:05:34.517Z,9.50
2023-02-13T10:08:19.504Z,11.10
2023-02-13T10:11:26.144Z,11.70
2023-02-13T10:14:01.472Z,17.13
2023-02-13T10:16:36.962Z,13.23
2023-02-13T10:19:12.879Z,11.27
2023-02-13T10:21:48.705Z,13.50
2023-02-13T10:24:31.997Z,12.57
2023-02-13T10:26:59.334Z,10.07
2023-02-13T10:30:03.868Z,9.00
2023-02-13T10:33:15.501Z,12.90
2023-02-13T10:35:43.612Z,11.67
2023-02-13T10:38:15.715Z,11.17
2023-02-13T10:40:52.040Z,11.97
2023-02-13T10:43:21.226Z,10.80
2023-02-13T10:45:57.545Z,9.67
2023-02-13T10:48:38.160Z,14.33
2023-02-13T10:51:10.012Z,13.10
2023-02-13T10:53:55.531Z,13.70
2023-02-13T10:56:42.747Z,13.00
2023-02-13T10:59:19.086Z,11.20
2023-02-13T11:01:54.893Z,13.50
2023-02-13T11:04:22.033Z,12.20
2023-02-13T11:06:52.908Z,12.40
2023-02-13T11:09:20.065Z,12.67
2023-02-13T11:11:46.688Z,11.17
2023-02-13T11:14:14.894Z,11.63
2023-02-13T11:16:50.346Z,10.00
2023-02-13T11:19:22.868Z,11.13
2023-02-13T11:21:54.548Z,10.20
2023-02-13T11:24:23.866Z,11.47
2023-02-13T11:26:53.516Z,13.37
2023-02-13T11:29:24.160Z,10.50
2023-02-13T11:32:28.137Z,13.17
2023-02-13T11:34:55.695Z,11.20
2023-02-13T11:37:23.902Z,12.63
2023-02-13T11:39:53.232Z,10.27
2023-02-13T11:42:25.224Z,10.73
2023-02-13T11:44:55.052Z,13.83
2023-02-13T11:47:32.502Z,9.13
2023-02-13T11:49:59.080Z,9.20
2023-02-13T11:52:34.210Z,12.50
2023-02-13T11:55:35.555Z,9.63
2023-02-13T12:01:07.953Z,12.67
2023-02-13T12:03:34.875Z,11.80
2023-02-13T12:06:05.712Z,12.67
2023-02-13T12:08:35.860Z,9.10
2023-02-13T12:11:04.614Z,8.73
2023-02-13T12:13:36.863Z,7.20
2023-02-13T12:16:10.630Z,12.07
2023-02-13T12:18:40.343Z,9.43
2023-02-13T12:21:44.693Z,10.57
2023-02-13T12:24:29.498Z,14.33
2023-02-13T12:27:05.463Z,7.33
2023-02-13T12:29:44.272Z,8.63
2023-02-13T12:32:14.140Z,10.33
2023-02-13T12:34:49.741Z,11.70
2023-02-13T12:37:19.475Z,7.90
2023-02-13T12:40:13.425Z,9.13
2023-02-13T12:42:52.568Z,9.87
2023-02-13T12:45:28.510Z,10.73
2023-02-13T12:48:04.394Z,9.23
2023-02-13T12:50:54.079Z,10.70
2023-02-13T12:53:27.512Z,8.73
2023-02-13T12:56:24.949Z,7.93
2023-02-13T12:58:57.594Z,8.57
2023-02-13T13:01:42.512Z,11.37
2023-02-13T13:04:27.381Z,10.87
2023-02-13T13:07:21.633Z,8.37
2023-02-13T13:09:48.069Z,12.47
2023-02-13T13:12:22.360Z,11.73
2023-02-13T13:15:00.683Z,8.20
2023-02-13T13:17:54.268Z,11.23
2023-02-13T13:20:42.130Z,10.07
2023-02-13T13:23:17.967Z,7.23
2023-02-13T13:26:24.559Z,8.43
2023-02-13T13:28:53.806Z,9.73
2023-02-13T13:31:24.361Z,12.17
2023-02-13T13:33:51.038Z,10.80
2023-02-13T13:37:06.831Z,9.30
2023-02-13T13:39:39.075Z,9.90
2023-02-13T13:42:20.662Z,8.47
2023-02-13T13:45:01.070Z,10.77
2023-02-13T13:47:41.709Z,6.43
2023-02-13T13:50:23.371Z,10.77
2023-02-13T13:53:19.432Z,6.63
2023-02-13T13:55:52.946Z,9.73
2023-02-13T13:58:34.536Z,18.63
2023-02-13T14:01:23.649Z,10.07
2023-02-13T14:03:57.306Z,10.13
2023-02-13T14:06:29.344Z,5.53
2023-02-13T14:08:59.180Z,12.43
2023-02-13T14:11:45.734Z,8.23
2023-02-13T14:14:28.795Z,5.53
2023-02-13T14:16:56.934Z,7.10
2023-02-13T14:19:28.870Z,7.07
2023-02-13T14:22:30.510Z,9.70
2023-02-13T14:24:59.215Z,8.37
2023-02-13T14:27:30.618Z,5.93
2023-02-13T14:29:57.728Z,8.27
2023-02-13T14:32:27.352Z,8.87
2023-02-13T14:34:57.431Z,5.53
2023-02-13T14:37:36.814Z,9.33
2023-02-13T14:40:44.804Z,5.80
2023-02-13T14:43:33.479Z,6.80
2023-02-13T14:46:12.452Z,9.20
2023-02-13T14:49:03.420Z,6.87
2023-02-13T14:51:39.912Z,5.40
2023-02-13T14:54:17.711Z,9.57
2023-02-13T14:56:47.108Z,6.63
2023-02-13T14:59:19.986Z,6.20
2023-02-13T15:02:06.994Z,7.93
2023-02-13T15:05:07.130Z,8.57
2023-02-13T15:07:36.400Z,8.90
2023-02-13T15:10:34.484Z,5.10
2023-02-13T15:13:02.227Z,7.53
2023-02-13T15:15:36.441Z,5.80
2023-02-13T15:18:07.625Z,8.50
2023-02-13T15:20:35.554Z,9.57
2023-02-13T15:23:02.549Z,6.03
2023-02-13T15:25:39.729Z,6.50
2023-02-13T15:28:08.034Z,5.70
2023-02-13T15:30:38.568Z,9.60
2023-02-13T15:33:17.515Z,6.03
2023-02-13T15:35:44.697Z,5.63
2023-02-13T15:38:36.376Z,6.93
2023-02-13T15:41:04.442Z,7.47
2023-02-13T15:43:32.705Z,6.67
2023-02-13T15:46:03.575Z,11.10
2023-02-13T15:48:33.921Z,8.77
2023-02-13T15:51:00.801Z,8.53
2023-02-13T15:53:27.625Z,9.17
2023-02-13T15:56:04.447Z,6.83
2023-02-13T15:58:33.444Z,7.90
2023-02-13T16:01:03.974Z,10.20
2023-02-13T16:03:32.191Z,8.27
2023-02-13T16:05:58.986Z,7.50
2023-02-13T16:08:30.466Z,8.10
2023-02-13T16:11:26.139Z,11.70
2023-02-13T16:14:01.991Z,8.23
2023-02-13T16:16:29.305Z,13.37
2023-02-13T16:18:56.002Z,8.13
2023-02-13T16:21:24.056Z,10.23
2023-02-13T16:23:53.416Z,10.17
2023-02-13T16:26:19.976Z,10.47
2023-02-13T16:28:47.448Z,9.87
2023-02-13T16:31:15.957Z,9.50
2023-02-13T16:33:43.700Z,13.70
2023-02-13T16:36:10.127Z,13.53
2023-02-13T16:38:49.986Z,12.93
2023-02-13T16:41:19.372Z,12.03
2023-02-13T16:43:52.114Z,10.23
2023-02-13T16:46:33.648Z,7.50
2023-02-13T16:49:00.353Z,17.50
2023-02-13T16:51:29.859Z,11.90
2023-02-13T16:53:58.398Z,9.77
2023-02-13T16:56:25.400Z,13.60
2023-02-13T16:59:12.625Z,13.57
2023-02-13T17:01:39.332Z,10.60
2023-02-13T17:04:22.679Z,11.43
2023-02-13T17:06:54.592Z,14.33
2023-02-13T17:09:21.819Z,9.77
2023-02-13T17:11:52.652Z,8.80
2023-02-13T17:14:20.544Z,10.07
2023-02-13T17:16:48.343Z,9.23
2023-02-13T17:19:15.089Z,9.13
2023-02-13T17:21:42.221Z,10.93
2023-02-13T17:24:15.369Z,7.57
2023-02-13T17:26:41.960Z,6.87
2023-02-13T17:29:08.616Z,7.47
2023-02-13T17:31:35.252Z,9.60
2023-02-13T17:34:01.960Z,6.93
2023-02-13T17:36:28.729Z,7.83
2023-02-13T17:38:55.205Z,7.20
2023-02-13T17:41:21.910Z,6.93
2023-02-13T17:43:48.592Z,8.43
2023-02-13T17:46:16.950Z,9.07
2023-02-13T17:48:43.612Z,8.40
2023-02-13T17:51:14.071Z,8.67
2023-02-13T17:53:40.836Z,6.53
2023-02-13T17:56:07.386Z,6.43
2023-02-13T17:58:33.973Z,6.47
2023-02-13T18:01:00.930Z,6.87
2023-02-13T18:03:27.936Z,6.47
2023-02-13T18:05:54.587Z,6.67
2023-02-13T18:08:21.116Z,6.70
2023-02-13T18:10:47.947Z,7.23
2023-02-13T18:13:14.533Z,8.57
2023-02-13T18:15:43.553Z,8.93
2023-02-13T18:18:10.495Z,6.73
2023-02-13T18:20:37.055Z,6.43
2023-02-13T18:23:03.736Z,6.30
2023-02-13T18:25:30.361Z,7.10
2023-02-13T18:27:56.871Z,7.70
2023-02-13T18:30:23.727Z,7.97
2023-02-13T18:32:56.585Z,6.47
2023-02-13T18:35:23.788Z,8.40
2023-02-13T18:37:50.840Z,9.00
2023-02-13T18:40:17.811Z,8.20
2023-02-13T18:42:44.550Z,8.03
2023-02-13T18:45:12.147Z,9.67
2023-02-13T18:47:39.052Z,8.43
2023-02-13T18:50:06.293Z,8.20
2023-02-13T18:52:33.945Z,9.77
2023-02-13T18:55:00.545Z,10.10
2023-02-13T18:57:27.045Z,9.67
2023-02-13T18:59:53.634Z,11.43
2023-02-13T19:02:20.456Z,10.27
2023-02-13T19:04:47.023Z,9.70
2023-02-13T19:07:13.560Z,13.30
2023-02-13T19:09:40.478Z,7.83
2023-02-13T19:12:07.957Z,12.27
2023-02-13T19:14:34.688Z,11.87
2023-02-13T19:17:01.221Z,10.83
2023-02-13T19:19:28.016Z,13.20
2023-02-13T19:21:54.719Z,9.27
2023-02-13T19:24:21.385Z,10.10
2023-02-13T19:26:48.176Z,7.73
2023-02-13T19:29:14.865Z,9.17
2023-02-13T19:31:41.567Z,9.50
2023-02-13T19:34:08.415Z,18.50
2023-02-13T19:36:35.153Z,13.33
2023-02-13T19:39:03.906Z,11.63
2023-02-13T19:41:31.158Z,12.20
2023-02-13T19:43:58.567Z,11.13
2023-02-13T19:46:30.225Z,10.23
2023-02-13T19:48:57.649Z,8.40
2023-02-13T19:51:30.484Z,9.30
2023-02-13T19:54:02.198Z,9.63
2023-02-13T19:56:29.779Z,10.20
2023-02-13T19:58:56.531Z,8.37
2023-02-13T20:01:25.049Z,8.73
2023-02-13T20:03:51.807Z,11.37
2023-02-13T20:06:24.853Z,12.13
2023-02-13T20:08:51.991Z,11.87
2023-02-13T20:11:20.128Z,10.70
2023-02-13T20:13:46.893Z,11.00
2023-02-13T20:16:16.320Z,10.40
2023-02-13T20:18:43.345Z,14.13
2023-02-13T20:21:14.612Z,10.20
2023-02-13T20:23:42.335Z,10.20
2023-02-13T20:26:13.755Z,10.73
2023-02-13T20:28:44.857Z,12.07
2023-02-13T20:31:20.160Z,9.83
2023-02-13T20:33:47.979Z,12.37
2023-02-13T20:36:22.523Z,13.60
2023-02-13T20:38:50.835Z,10.57
2023-02-13T20:41:19.973Z,12.10
2023-02-13T20:43:47.010Z,12.17
2023-02-13T20:46:17.319Z,12.30
2023-02-13T20:48:45.953Z,13.47
2023-02-13T20:51:14.566Z,14.13
2023-02-13T20:53:42.268Z,18.33
2023-02-13T20:56:12.978Z,11.80
2023-02-13T20:58:40.716Z,11.60
2023-02-13T21:01:15.724Z,15.30
2023-02-13T21:03:43.118Z,13.77
2023-02-13T21:06:10.167Z,14.30
2023-02-13T21:08:37.085Z,14.73
2023-02-13T21:11:05.349Z,11.73
2023-02-13T21:13:35.225Z,14.93
2023-02-13T21:16:09.295Z,10.70
2023-02-13T21:18:36.726Z,12.17
2023-02-13T21:21:03.483Z,10.70
2023-02-13T21:23:30.232Z,11.67
2023-02-13T21:26:00.624Z,11.83
2023-02-13T21:28:27.359Z,14.83
2023-02-13T21:30:53.917Z,14.07
2023-02-13T21:33:20.742Z,11.70
2023-02-13T21:35:47.210Z,13.63
2023-02-13T21:38:13.793Z,16.03
2023-02-13T21:40:40.883Z,12.43
2023-02-13T21:43:08.468Z,14.83
2023-02-13T21:45:35.110Z,16.77
2023-02-13T21:48:01.748Z,16.13
2023-02-13T21:50:28.283Z,11.73
2023-02-13T21:52:57.774Z,14.60
2023-02-13T21:55:24.328Z,14.87
2023-02-13T21:57:50.882Z,16.70
2023-02-13T22:00:17.867Z,14.17
2023-02-13T22:02:44.532Z,15.40
2023-02-13T22:05:11.146Z,13.43
2023-02-13T22:07:57.562Z,16.33
2023-02-13T22:10:24.157Z,15.53
2023-02-13T22:12:52.438Z,15.63
2023-02-13T22:15:19.976Z,14.53
2023-02-13T22:17:46.550Z,15.57
2023-02-13T22:20:13.207Z,17.80
2023-02-13T22:22:39.862Z,16.67
2023-02-13T22:25:06.930Z,17.23
2023-02-13T22:27:33.461Z,13.83
2023-02-13T22:30:00.013Z,18.37
2023-02-13T22:32:26.581Z,14.43
2023-02-13T22:34:53.583Z,16.73
2023-02-13T22:37:20.187Z,13.33
2023-02-13T22:39:46.785Z,16.10
2023-02-13T22:42:17.095Z,17.63
2023-02-13T22:44:43.716Z,14.77
2023-02-13T22:47:10.225Z,18.47
2023-02-13T22:49:36.731Z,12.43
2023-02-13T22:52:03.385Z,16.60
2023-02-13T22:54:29.854Z,15.43
2023-02-13T22:56:56.652Z,17.10
2023-02-13T22:59:26.185Z,13.40
2023-02-13T23:01:52.837Z,14.77
2023-02-13T23:04:19.593Z,17.77
2023-02-13T23:06:46.145Z,15.07
2023-02-13T23:09:12.692Z,16.80
2023-02-13T23:11:57.777Z,16.57
2023-02-13T23:14:25.246Z,15.40
2023-02-13T23:17:10.667Z,14.73
2023-02-13T23:19:37.227Z,13.83
2023-02-13T23:22:03.906Z,16.67
2023-02-13T23:24:31.156Z,15.47
2023-02-13T23:26:58.971Z,17.83
2023-02-13T23:29:26.281Z,16.07
2023-02-13T23:31:53.198Z,16.73
2023-02-13T23:34:20.070Z,16.23
2023-02-13T23:36:46.710Z,15.27
2023-02-13T23:39:13.204Z,13.50
2023-02-13T23:41:39.879Z,14.67
2023-02-13T23:44:06.442Z,14.60
2023-02-13T23:46:33.124Z,22.63
2023-02-13T23:48:59.780Z,18.30
2023-02-13T23:51:26.312Z,13.40
2023-02-13T23:53:56.231Z,13.90
2023-02-13T23:56:24.319Z,16.60
2023-02-13T23:58:51.144Z,15.83
